createdAt,value
2022-10-30T00:00:04.147Z,1015.50
2022-10-30T00:01:04.127Z,1015.49
2022-10-30T00:02:04.231Z,1015.47
2022-10-30T00:03:04.348Z,1015.48
2022-10-30T00:04:04.081Z,1015.48
2022-10-30T00:05:04.065Z,1015.46
2022-10-30T00:06:04.087Z,1015.43
2022-10-30T00:07:04.055Z,1015.42
2022-10-30T00:08:04.074Z,1015.41
2022-10-30T00:09:04.025Z,1015.39
2022-10-30T00:10:04.014Z,1015.39
2022-10-30T00:11:04.014Z,1015.38
2022-10-30T00:12:04.017Z,1015.43
2022-10-30T00:13:04.000Z,1015.45
2022-10-30T00:14:03.974Z,1015.49
2022-10-30T00:15:03.970Z,1015.45
2022-10-30T00:16:03.979Z,1015.39
2022-10-30T00:17:03.935Z,1015.45
2022-10-30T00:18:03.949Z,1015.43
2022-10-30T00:19:03.921Z,1015.44
2022-10-30T00:20:03.903Z,1015.39
2022-10-30T00:21:03.903Z,1015.41
2022-10-30T00:22:32.865Z,1015.40
2022-10-30T00:23:32.845Z,1015.42
2022-10-30T00:24:32.836Z,1015.36
2022-10-30T00:25:32.826Z,1015.42
2022-10-30T00:26:32.813Z,1015.35
2022-10-30T00:27:32.827Z,1015.33
2022-10-30T00:28:32.792Z,1015.32
2022-10-30T00:29:32.776Z,1015.25
2022-10-30T00:30:32.767Z,1015.33
2022-10-30T00:31:32.774Z,1015.33
2022-10-30T00:32:32.763Z,1015.31
2022-10-30T00:33:32.737Z,1015.30
2022-10-30T00:34:32.728Z,1015.28
2022-10-30T00:35:32.843Z,1015.26
2022-10-30T00:36:32.705Z,1015.25
2022-10-30T00:37:32.713Z,1015.26
2022-10-30T00:38:32.702Z,1015.27
2022-10-30T00:39:32.680Z,1015.28
2022-10-30T00:40:32.659Z,1015.24
2022-10-30T00:41:32.668Z,1015.32
2022-10-30T00:42:32.636Z,1015.27
2022-10-30T00:43:32.672Z,1015.25
2022-10-30T00:44:32.612Z,1015.29
2022-10-30T00:45:32.602Z,1015.30
2022-10-30T00:46:32.590Z,1015.28
2022-10-30T00:47:32.606Z,1015.33
2022-10-30T00:48:32.593Z,1015.29
2022-10-30T00:49:32.557Z,1015.30
2022-10-30T00:50:32.573Z,1015.26
2022-10-30T00:51:32.566Z,1015.26
2022-10-30T00:52:32.530Z,1015.24
2022-10-30T00:53:32.510Z,1015.20
2022-10-30T00:54:32.502Z,1015.19
2022-10-30T00:55:32.488Z,1015.26
2022-10-30T00:56:32.482Z,1015.25
2022-10-30T00:57:32.495Z,1015.15
2022-10-30T00:58:32.475Z,1015.16
2022-10-30T00:59:32.452Z,1015.14
2022-10-30T01:00:32.437Z,1015.13
2022-10-30T01:01:32.636Z,1015.15
2022-10-30T01:02:32.552Z,1015.13
2022-10-30T01:03:32.439Z,1015.04
2022-10-30T01:04:32.392Z,1015.05
2022-10-30T01:05:32.409Z,1015.12
2022-10-30T01:06:32.374Z,1015.04
2022-10-30T01:07:32.363Z,1015.05
2022-10-30T01:08:32.426Z,1015.04
2022-10-30T01:09:32.341Z,1015.01
2022-10-30T01:10:32.330Z,1014.99
2022-10-30T01:11:32.315Z,1014.98
2022-10-30T01:12:32.335Z,1014.91
2022-10-30T01:13:32.292Z,1014.92
2022-10-30T01:14:32.281Z,1014.92
2022-10-30T01:15:32.273Z,1014.90
2022-10-30T01:16:32.265Z,1014.89
2022-10-30T01:17:32.251Z,1014.89
2022-10-30T01:18:32.262Z,1014.92
2022-10-30T01:19:32.253Z,1014.95
2022-10-30T01:20:32.239Z,1014.96
2022-10-30T01:21:32.205Z,1014.95
2022-10-30T01:22:32.196Z,1014.96
2022-10-30T01:23:32.205Z,1015.00
2022-10-30T01:24:32.175Z,1014.91
2022-10-30T01:25:32.164Z,1014.99
2022-10-30T01:26:32.151Z,1014.94
2022-10-30T01:27:32.145Z,1014.94
2022-10-30T01:28:32.154Z,1014.92
2022-10-30T01:29:32.126Z,1014.92
2022-10-30T01:30:32.105Z,1014.95
2022-10-30T01:31:32.125Z,1014.93
2022-10-30T01:32:32.088Z,1014.92
2022-10-30T01:33:32.074Z,1014.92
2022-10-30T01:34:32.188Z,1014.91
2022-10-30T01:35:32.100Z,1014.87
2022-10-30T01:36:32.149Z,1014.87
2022-10-30T01:37:32.033Z,1014.83
2022-10-30T01:38:32.019Z,1014.87
2022-10-30T01:39:32.016Z,1014.90
2022-10-30T01:40:31.999Z,1014.90
2022-10-30T01:41:32.010Z,1014.84
2022-10-30T01:42:32.011Z,1014.81
2022-10-30T01:43:31.964Z,1014.89
2022-10-30T01:44:31.958Z,1014.84
2022-10-30T01:45:31.941Z,1014.83
2022-10-30T01:46:31.935Z,1014.84
2022-10-30T01:47:31.924Z,1014.81
2022-10-30T01:48:31.935Z,1014.80
2022-10-30T01:49:31.900Z,1014.74
2022-10-30T01:50:31.907Z,1014.75
2022-10-30T01:51:31.918Z,1014.71
2022-10-30T01:52:31.888Z,1014.77
2022-10-30T01:53:31.877Z,1014.71
2022-10-30T01:54:31.856Z,1014.68
2022-10-30T01:55:31.852Z,1014.64
2022-10-30T01:56:31.873Z,1014.62
2022-10-30T01:57:31.818Z,1014.59
2022-10-30T01:58:31.827Z,1014.58
2022-10-30T01:59:31.793Z,1014.60
2022-10-30T02:00:31.779Z,1014.60
2022-10-30T02:01:32.013Z,1014.62
2022-10-30T02:02:31.948Z,1014.57
2022-10-30T02:03:31.778Z,1014.64
2022-10-30T02:04:31.738Z,1014.58
2022-10-30T02:05:31.733Z,1014.59
2022-10-30T02:06:31.719Z,1014.56
2022-10-30T02:07:31.725Z,1014.55
2022-10-30T02:08:31.714Z,1014.57
2022-10-30T02:09:31.692Z,1014.60
2022-10-30T02:10:31.672Z,1014.60
2022-10-30T02:11:31.685Z,1014.62
2022-10-30T02:12:31.655Z,1014.58
2022-10-30T02:13:31.663Z,1014.60
2022-10-30T02:14:31.635Z,1014.54
2022-10-30T02:15:31.622Z,1014.51
2022-10-30T02:16:31.630Z,1014.50
2022-10-30T02:17:31.594Z,1014.52
2022-10-30T02:18:31.666Z,1014.50
2022-10-30T02:19:31.578Z,1014.52
2022-10-30T02:20:31.574Z,1014.43
2022-10-30T02:21:31.563Z,1014.42
2022-10-30T02:22:31.656Z,1014.49
2022-10-30T02:23:31.559Z,1014.47
2022-10-30T02:24:31.533Z,1014.47
2022-10-30T02:25:31.514Z,1014.44
2022-10-30T02:26:31.500Z,1014.46
2022-10-30T02:27:31.515Z,1014.48
2022-10-30T02:28:31.479Z,1014.44
2022-10-30T02:29:31.470Z,1014.47
2022-10-30T02:30:31.461Z,1014.40
2022-10-30T02:31:31.462Z,1014.39
2022-10-30T02:32:31.459Z,1014.46
2022-10-30T02:33:31.444Z,1014.44
2022-10-30T02:34:31.414Z,1014.48
2022-10-30T02:35:31.406Z,1014.49
2022-10-30T02:36:31.397Z,1014.46
2022-10-30T02:37:31.433Z,1014.45
2022-10-30T02:38:31.369Z,1014.41
2022-10-30T02:39:31.399Z,1014.42
2022-10-30T02:40:31.350Z,1014.41
2022-10-30T02:41:31.341Z,1014.41
2022-10-30T02:42:31.325Z,1014.41
2022-10-30T02:43:31.329Z,1014.39
2022-10-30T02:44:31.328Z,1014.47
2022-10-30T02:45:31.297Z,1014.39
2022-10-30T02:46:31.284Z,1014.38
2022-10-30T02:47:31.277Z,1014.38
2022-10-30T02:48:31.286Z,1014.44
2022-10-30T02:49:31.252Z,1014.28
2022-10-30T02:50:31.243Z,1014.35
2022-10-30T02:51:31.230Z,1014.33
2022-10-30T02:52:31.222Z,1014.29
2022-10-30T02:53:31.234Z,1014.31
2022-10-30T02:54:31.196Z,1014.30
2022-10-30T02:55:31.211Z,1014.24
2022-10-30T02:56:31.173Z,1014.27
2022-10-30T02:57:31.166Z,1014.26
2022-10-30T02:58:31.176Z,1014.26
2022-10-30T02:59:31.146Z,1014.20
2022-10-30T03:00:31.134Z,1014.19
2022-10-30T03:01:31.269Z,1014.27
2022-10-30T03:02:31.136Z,1014.28
2022-10-30T03:03:31.102Z,1014.19
2022-10-30T03:04:31.087Z,1014.28
2022-10-30T03:05:31.078Z,1014.29
2022-10-30T03:06:31.067Z,1014.30
2022-10-30T03:07:31.062Z,1014.23
2022-10-30T03:08:31.072Z,1014.29
2022-10-30T03:09:31.037Z,1014.33
2022-10-30T03:10:31.027Z,1014.37
2022-10-30T03:11:31.035Z,1014.30
2022-10-30T03:12:31.002Z,1014.36
2022-10-30T03:13:31.013Z,1014.35
2022-10-30T03:14:31.004Z,1014.36
2022-10-30T03:15:30.968Z,1014.32
2022-10-30T03:16:30.957Z,1014.44
2022-10-30T03:17:31.049Z,1014.39
2022-10-30T03:18:30.932Z,1014.38
2022-10-30T03:19:30.944Z,1014.34
2022-10-30T03:20:30.910Z,1014.38
2022-10-30T03:21:30.906Z,1014.37
2022-10-30T03:22:30.893Z,1014.42
2022-10-30T03:23:30.880Z,1014.31
2022-10-30T03:24:30.887Z,1014.31
2022-10-30T03:25:30.865Z,1014.38
2022-10-30T03:26:30.853Z,1014.35
2022-10-30T03:27:30.855Z,1014.38
2022-10-30T03:28:30.825Z,1014.40
2022-10-30T03:29:30.832Z,1014.34
2022-10-30T03:30:30.808Z,1014.35
2022-10-30T03:31:30.822Z,1014.35
2022-10-30T03:32:30.780Z,1014.31
2022-10-30T03:33:30.773Z,1014.29
2022-10-30T03:34:30.760Z,1014.27
2022-10-30T03:35:30.747Z,1014.28
2022-10-30T03:36:30.753Z,1014.34
2022-10-30T03:37:30.727Z,1014.29
2022-10-30T03:38:30.722Z,1014.32
2022-10-30T03:39:30.709Z,1014.31
2022-10-30T03:40:30.711Z,1014.29
2022-10-30T03:41:30.701Z,1014.28
2022-10-30T03:42:30.667Z,1014.23
2022-10-30T03:43:30.683Z,1014.19
2022-10-30T03:44:30.650Z,1014.25
2022-10-30T03:45:30.638Z,1014.20
2022-10-30T03:46:30.651Z,1014.21
2022-10-30T03:47:30.617Z,1014.14
2022-10-30T03:48:30.614Z,1014.17
2022-10-30T03:49:30.593Z,1014.15
2022-10-30T03:50:30.577Z,1014.18
2022-10-30T03:51:30.576Z,1014.15
2022-10-30T03:52:30.580Z,1014.14
2022-10-30T03:53:30.551Z,1014.10
2022-10-30T03:54:30.534Z,1014.10
2022-10-30T03:55:30.526Z,1014.10
2022-10-30T03:56:30.515Z,1014.21
2022-10-30T03:57:30.528Z,1014.16
2022-10-30T03:58:30.495Z,1014.28
2022-10-30T03:59:30.502Z,1014.26
2022-10-30T04:00:30.475Z,1014.31
2022-10-30T04:01:30.589Z,1014.33
2022-10-30T04:02:30.472Z,1014.30
2022-10-30T04:03:30.435Z,1014.32
2022-10-30T04:04:30.428Z,1014.28
2022-10-30T04:05:30.418Z,1014.29
2022-10-30T04:06:30.406Z,1014.28
2022-10-30T04:07:30.419Z,1014.17
2022-10-30T04:08:30.386Z,1014.20
2022-10-30T04:09:30.374Z,1014.15
2022-10-30T04:10:30.358Z,1014.12
2022-10-30T04:11:30.509Z,1014.10
2022-10-30T04:12:30.363Z,1014.13
2022-10-30T04:13:30.331Z,1014.13
2022-10-30T04:14:30.321Z,1014.12
2022-10-30T04:15:30.327Z,1014.24
2022-10-30T04:16:30.294Z,1014.25
2022-10-30T04:17:30.317Z,1014.24
2022-10-30T04:18:30.274Z,1014.31
2022-10-30T04:19:30.260Z,1014.41
2022-10-30T04:20:30.249Z,1014.38
2022-10-30T04:21:30.243Z,1014.44
2022-10-30T04:22:30.235Z,1014.46
2022-10-30T04:23:30.239Z,1014.47
2022-10-30T04:24:30.206Z,1014.46
2022-10-30T04:25:30.198Z,1014.51
2022-10-30T04:26:30.183Z,1014.51
2022-10-30T04:27:30.179Z,1014.50
2022-10-30T04:28:30.182Z,1014.49
2022-10-30T04:29:30.152Z,1014.57
2022-10-30T04:30:30.138Z,1014.57
2022-10-30T04:31:30.147Z,1014.51
2022-10-30T04:32:30.126Z,1014.57
2022-10-30T04:33:30.132Z,1014.59
2022-10-30T04:34:30.092Z,1014.64
2022-10-30T04:35:30.086Z,1014.63
2022-10-30T04:36:30.091Z,1014.68
2022-10-30T04:37:30.060Z,1014.59
2022-10-30T04:38:30.075Z,1014.54
2022-10-30T04:39:30.039Z,1014.58
2022-10-30T04:40:30.037Z,1014.53
2022-10-30T04:41:30.040Z,1014.42
2022-10-30T04:42:30.005Z,1014.32
2022-10-30T04:43:30.018Z,1014.30
2022-10-30T04:44:29.985Z,1014.36
2022-10-30T04:45:29.978Z,1014.39
2022-10-30T04:46:29.961Z,1014.46
2022-10-30T04:47:30.101Z,1014.44
2022-10-30T04:48:29.960Z,1014.39
2022-10-30T04:49:29.932Z,1014.33
2022-10-30T04:50:29.916Z,1014.32
2022-10-30T04:51:29.912Z,1014.31
2022-10-30T04:52:29.897Z,1014.36
2022-10-30T04:53:29.917Z,1014.37
2022-10-30T04:54:29.869Z,1014.33
2022-10-30T04:55:29.865Z,1014.32
2022-10-30T04:56:29.851Z,1014.21
2022-10-30T04:57:29.838Z,1014.21
2022-10-30T04:58:29.849Z,1014.21
2022-10-30T04:59:29.818Z,1014.28
2022-10-30T05:00:29.810Z,1014.30
2022-10-30T05:01:29.921Z,1014.26
2022-10-30T05:02:30.008Z,1014.26
2022-10-30T05:03:29.814Z,1014.26
2022-10-30T05:04:29.764Z,1014.24
2022-10-30T05:05:29.779Z,1014.25
2022-10-30T05:06:29.741Z,1014.20
2022-10-30T05:07:29.739Z,1014.22
2022-10-30T05:08:29.729Z,1014.25
2022-10-30T05:09:29.703Z,1014.22
2022-10-30T05:10:29.710Z,1014.18
2022-10-30T05:11:29.684Z,1014.18
2022-10-30T05:12:29.692Z,1014.17
2022-10-30T05:13:29.657Z,1014.14
2022-10-30T05:14:29.650Z,1014.16
2022-10-30T05:15:29.642Z,1014.19
2022-10-30T05:16:29.627Z,1014.05
2022-10-30T05:18:29.617Z,1014.07
2022-10-30T05:19:29.639Z,1014.07
2022-10-30T05:20:29.585Z,1014.08
2022-10-30T05:21:29.573Z,1014.06
2022-10-30T05:22:29.582Z,1013.99
2022-10-30T05:23:29.553Z,1013.98
2022-10-30T05:24:29.557Z,1013.89
2022-10-30T05:25:29.531Z,1013.89
2022-10-30T05:26:29.517Z,1013.94
2022-10-30T05:27:29.507Z,1013.84
2022-10-30T05:28:29.520Z,1013.85
2022-10-30T05:29:29.500Z,1013.87
2022-10-30T05:30:29.477Z,1013.83
2022-10-30T05:31:29.460Z,1013.91
2022-10-30T05:32:29.456Z,1013.83
2022-10-30T05:33:29.463Z,1013.79
2022-10-30T05:34:29.427Z,1013.82
2022-10-30T05:35:29.441Z,1013.85
2022-10-30T05:36:29.408Z,1013.91
2022-10-30T05:37:29.399Z,1013.83
2022-10-30T05:38:29.420Z,1013.85
2022-10-30T05:39:29.372Z,1013.81
2022-10-30T05:40:29.365Z,1013.79
2022-10-30T05:41:29.350Z,1013.76
2022-10-30T05:42:29.335Z,1013.77
2022-10-30T05:43:29.355Z,1013.83
2022-10-30T05:44:58.718Z,1013.82
2022-10-30T05:45:30.309Z,1013.83
2022-10-30T05:46:29.320Z,1013.87
2022-10-30T05:47:29.290Z,1013.88
2022-10-30T05:48:29.284Z,1013.94
2022-10-30T05:49:29.262Z,1014.03
2022-10-30T05:50:29.257Z,1014.05
2022-10-30T05:51:29.294Z,1013.99
2022-10-30T05:52:29.257Z,1013.99
2022-10-30T05:53:29.224Z,1014.00
2022-10-30T05:54:29.211Z,1013.93
2022-10-30T05:55:29.199Z,1013.92
2022-10-30T05:56:29.208Z,1013.77
2022-10-30T05:57:29.175Z,1013.89
2022-10-30T05:58:29.168Z,1013.84
2022-10-30T05:59:29.152Z,1013.95
2022-10-30T06:00:29.173Z,1013.92
2022-10-30T06:01:29.283Z,1013.89
2022-10-30T06:02:29.180Z,1013.82
2022-10-30T06:03:29.205Z,1013.88
2022-10-30T06:04:29.101Z,1013.97
2022-10-30T06:05:29.089Z,1013.98
2022-10-30T06:06:29.102Z,1013.80
2022-10-30T06:07:29.091Z,1013.86
2022-10-30T06:08:29.052Z,1013.86
2022-10-30T06:09:29.044Z,1013.82
2022-10-30T06:10:29.033Z,1013.87
2022-10-30T06:11:29.043Z,1013.90
2022-10-30T06:12:29.014Z,1013.89
2022-10-30T06:13:28.998Z,1013.94
2022-10-30T06:14:28.989Z,1013.97
2022-10-30T06:15:28.974Z,1013.99
2022-10-30T06:16:29.048Z,1013.88
2022-10-30T06:17:28.961Z,1013.88
2022-10-30T06:18:28.944Z,1013.91
2022-10-30T06:19:28.938Z,1013.87
2022-10-30T06:20:28.932Z,1013.89
2022-10-30T06:21:28.928Z,1013.92
2022-10-30T06:22:28.909Z,1013.88
2022-10-30T06:23:28.903Z,1013.87
2022-10-30T06:24:28.876Z,1013.86
2022-10-30T06:25:28.869Z,1013.81
2022-10-30T06:26:28.873Z,1013.84
2022-10-30T06:27:28.844Z,1013.82
2022-10-30T06:28:28.828Z,1013.80
2022-10-30T06:29:28.850Z,1013.82
2022-10-30T06:30:28.814Z,1013.84
2022-10-30T06:31:28.806Z,1013.85
2022-10-30T06:32:28.795Z,1013.90
2022-10-30T06:33:28.780Z,1013.92
2022-10-30T06:34:28.789Z,1013.95
2022-10-30T06:35:28.758Z,1013.90
2022-10-30T06:36:28.752Z,1013.89
2022-10-30T06:37:28.742Z,1013.90
2022-10-30T06:38:28.723Z,1013.84
2022-10-30T06:39:28.748Z,1013.77
2022-10-30T06:40:28.726Z,1013.78
2022-10-30T06:41:30.412Z,1013.73
2022-10-30T06:42:28.684Z,1013.74
2022-10-30T06:43:28.665Z,1013.73
2022-10-30T06:44:28.658Z,1013.73
2022-10-30T06:45:28.678Z,1013.72
2022-10-30T06:46:32.528Z,1013.72
2022-10-30T06:47:29.626Z,1013.72
2022-10-30T06:48:28.611Z,1013.68
2022-10-30T06:49:28.601Z,1013.59
2022-10-30T06:50:28.605Z,1013.66
2022-10-30T06:51:28.606Z,1013.66
2022-10-30T06:52:28.569Z,1013.64
2022-10-30T06:53:28.557Z,1013.61
2022-10-30T06:54:28.566Z,1013.64
2022-10-30T06:55:28.552Z,1013.63
2022-10-30T06:56:28.547Z,1013.76
2022-10-30T06:57:28.522Z,1013.86
2022-10-30T06:58:28.525Z,1013.92
2022-10-30T06:59:28.496Z,1013.95
2022-10-30T07:00:28.495Z,1014.00
2022-10-30T07:01:28.538Z,1014.06
2022-10-30T07:02:28.703Z,1014.06
2022-10-30T07:03:28.451Z,1014.15
2022-10-30T07:04:28.436Z,1014.12
2022-10-30T07:05:28.424Z,1014.27
2022-10-30T07:06:28.431Z,1014.19
2022-10-30T07:07:28.403Z,1014.19
2022-10-30T07:08:28.412Z,1014.22
2022-10-30T07:09:28.378Z,1014.24
2022-10-30T07:10:28.387Z,1014.24
2022-10-30T07:11:28.398Z,1014.24
2022-10-30T07:12:28.366Z,1014.26
2022-10-30T07:13:28.336Z,1014.28
2022-10-30T07:14:28.329Z,1014.29
2022-10-30T07:15:28.375Z,1014.27
2022-10-30T07:16:28.325Z,1014.29
2022-10-30T07:17:28.312Z,1014.33
2022-10-30T07:18:28.283Z,1014.35
2022-10-30T07:19:28.270Z,1014.27
2022-10-30T07:20:28.267Z,1014.28
2022-10-30T07:21:28.250Z,1014.31
2022-10-30T07:22:28.260Z,1014.27
2022-10-30T07:23:28.222Z,1014.35
2022-10-30T07:24:28.219Z,1014.28
2022-10-30T07:25:28.205Z,1014.25
2022-10-30T07:26:28.198Z,1014.22
2022-10-30T07:27:28.231Z,1014.22
2022-10-30T07:28:28.174Z,1014.19
2022-10-30T07:29:28.164Z,1014.23
2022-10-30T07:30:28.389Z,1014.25
2022-10-30T07:31:41.552Z,1014.30
2022-10-30T07:32:29.158Z,1014.36
2022-10-30T07:33:28.120Z,1014.33
2022-10-30T07:34:28.106Z,1014.31
2022-10-30T07:35:28.099Z,1014.35
2022-10-30T07:36:28.100Z,1014.35
2022-10-30T07:37:28.081Z,1014.41
2022-10-30T07:38:28.113Z,1014.43
2022-10-30T07:39:28.052Z,1014.44
2022-10-30T07:40:28.120Z,1014.37
2022-10-30T07:41:28.030Z,1014.37
2022-10-30T07:42:28.037Z,1014.36
2022-10-30T07:43:28.030Z,1014.41
2022-10-30T07:44:28.003Z,1014.47
2022-10-30T07:45:27.994Z,1014.39
2022-10-30T07:46:28.001Z,1014.34
2022-10-30T07:47:27.962Z,1014.36
2022-10-30T07:48:27.953Z,1014.40
2022-10-30T07:49:27.946Z,1014.38
2022-10-30T07:50:28.043Z,1014.39
2022-10-30T07:51:27.943Z,1014.36
2022-10-30T07:52:27.910Z,1014.34
2022-10-30T07:53:27.895Z,1014.35
2022-10-30T07:54:27.921Z,1014.36
2022-10-30T07:55:27.880Z,1014.34
2022-10-30T07:56:27.903Z,1014.29
2022-10-30T07:57:27.857Z,1014.33
2022-10-30T07:58:27.844Z,1014.31
2022-10-30T07:59:27.853Z,1014.30
2022-10-30T08:00:27.969Z,1014.30
2022-10-30T08:01:28.005Z,1014.30
2022-10-30T08:02:27.970Z,1014.34
2022-10-30T08:03:27.787Z,1014.27
2022-10-30T08:04:27.790Z,1014.28
2022-10-30T08:05:29.909Z,1014.33
2022-10-30T08:06:27.765Z,1014.29
2022-10-30T08:07:27.777Z,1014.36
2022-10-30T08:08:27.738Z,1014.34
2022-10-30T08:09:27.743Z,1014.34
2022-10-30T08:10:27.738Z,1014.36
2022-10-30T08:11:27.715Z,1014.34
2022-10-30T08:12:27.695Z,1014.35
2022-10-30T08:13:27.680Z,1014.35
2022-10-30T08:14:27.677Z,1014.31
2022-10-30T08:15:27.699Z,1014.31
2022-10-30T08:16:27.671Z,1014.38
2022-10-30T08:17:27.652Z,1014.36
2022-10-30T08:18:27.628Z,1014.30
2022-10-30T08:19:27.615Z,1014.35
2022-10-30T08:20:27.632Z,1014.33
2022-10-30T08:21:27.593Z,1014.35
2022-10-30T08:22:27.586Z,1014.33
2022-10-30T08:23:27.568Z,1014.37
2022-10-30T08:24:27.566Z,1014.40
2022-10-30T08:25:27.571Z,1014.34
2022-10-30T08:26:27.543Z,1014.31
2022-10-30T08:27:27.525Z,1014.39
2022-10-30T08:28:31.678Z,1014.40
2022-10-30T08:29:28.504Z,1014.32
2022-10-30T08:30:27.627Z,1014.31
2022-10-30T08:31:27.546Z,1014.40
2022-10-30T08:32:27.477Z,1014.43
2022-10-30T08:33:27.479Z,1014.41
2022-10-30T08:34:27.457Z,1014.33
2022-10-30T08:35:27.545Z,1014.32
2022-10-30T08:36:27.431Z,1014.36
2022-10-30T08:37:27.443Z,1014.40
2022-10-30T08:38:27.416Z,1014.42
2022-10-30T08:39:27.396Z,1014.40
2022-10-30T08:40:27.383Z,1014.36
2022-10-30T08:41:27.380Z,1014.35
2022-10-30T08:42:27.389Z,1014.39
2022-10-30T08:43:27.381Z,1014.46
2022-10-30T08:44:27.349Z,1014.54
2022-10-30T08:45:30.924Z,1014.44
2022-10-30T08:46:27.322Z,1014.42
2022-10-30T08:47:27.326Z,1014.38
2022-10-30T08:48:27.329Z,1014.39
2022-10-30T08:49:27.300Z,1014.43
2022-10-30T08:50:27.276Z,1014.47
2022-10-30T08:51:27.267Z,1014.45
2022-10-30T08:52:27.263Z,1014.42
2022-10-30T08:53:27.252Z,1014.47
2022-10-30T08:54:27.256Z,1014.47
2022-10-30T08:55:27.218Z,1014.41
2022-10-30T08:56:27.207Z,1014.31
2022-10-30T08:57:27.200Z,1014.43
2022-10-30T08:58:27.186Z,1014.39
2022-10-30T08:59:27.195Z,1014.36
2022-10-30T09:00:27.164Z,1014.48
2022-10-30T09:01:27.360Z,1014.42
2022-10-30T09:02:27.211Z,1014.41
2022-10-30T09:03:27.154Z,1014.48
2022-10-30T09:04:27.143Z,1014.53
2022-10-30T09:05:27.107Z,1014.48
2022-10-30T09:06:27.096Z,1014.40
2022-10-30T09:07:27.087Z,1014.44
2022-10-30T09:08:27.078Z,1014.53
2022-10-30T09:09:27.086Z,1014.46
2022-10-30T09:10:27.053Z,1014.46
2022-10-30T09:11:27.038Z,1014.49
2022-10-30T09:12:27.055Z,1014.54
2022-10-30T09:13:27.016Z,1014.54
2022-10-30T09:14:27.008Z,1014.47
2022-10-30T09:15:27.004Z,1014.46
2022-10-30T09:16:27.009Z,1014.50
2022-10-30T09:17:26.972Z,1014.43
2022-10-30T09:18:26.964Z,1014.35
2022-10-30T09:19:26.971Z,1014.34
2022-10-30T09:20:27.004Z,1014.40
2022-10-30T09:21:26.951Z,1014.36
2022-10-30T09:22:26.959Z,1014.35
2022-10-30T09:23:26.910Z,1014.42
2022-10-30T09:24:26.895Z,1014.37
2022-10-30T09:25:26.890Z,1014.37
2022-10-30T09:26:26.877Z,1014.33
2022-10-30T09:27:26.863Z,1014.32
2022-10-30T09:28:26.875Z,1014.37
2022-10-30T09:29:26.845Z,1014.40
2022-10-30T09:30:26.828Z,1014.36
2022-10-30T09:31:26.820Z,1014.32
2022-10-30T09:32:26.823Z,1014.29
2022-10-30T09:33:26.822Z,1014.34
2022-10-30T09:35:26.800Z,1014.27
2022-10-30T09:36:26.769Z,1014.29
2022-10-30T09:37:26.751Z,1014.26
2022-10-30T09:38:26.762Z,1014.32
2022-10-30T09:39:26.728Z,1014.31
2022-10-30T09:40:26.739Z,1014.28
2022-10-30T09:41:26.704Z,1014.25
2022-10-30T09:42:26.693Z,1014.15
2022-10-30T09:43:26.687Z,1014.21
2022-10-30T09:44:26.676Z,1014.26
2022-10-30T09:45:29.633Z,1014.21
2022-10-30T09:46:26.654Z,1014.21
2022-10-30T09:47:26.648Z,1014.26
2022-10-30T09:48:26.629Z,1014.21
2022-10-30T09:49:26.620Z,1014.22
2022-10-30T09:50:26.604Z,1014.22
2022-10-30T09:51:26.641Z,1014.24
2022-10-30T09:52:26.578Z,1014.28
2022-10-30T09:53:26.576Z,1014.24
2022-10-30T09:54:26.563Z,1014.28
2022-10-30T09:55:26.555Z,1014.33
2022-10-30T09:56:26.558Z,1014.25
2022-10-30T09:57:26.531Z,1014.24
2022-10-30T09:58:26.513Z,1014.27
2022-10-30T09:59:26.524Z,1014.26
2022-10-30T10:00:26.490Z,1014.24
2022-10-30T10:01:26.621Z,1014.25
2022-10-30T10:02:26.643Z,1014.28
2022-10-30T10:03:26.465Z,1014.24
2022-10-30T10:04:27.147Z,1014.25
2022-10-30T10:05:26.440Z,1014.33
2022-10-30T10:06:26.426Z,1014.25
2022-10-30T10:07:26.431Z,1014.23
2022-10-30T10:08:26.405Z,1014.18
2022-10-30T10:09:26.416Z,1014.24
2022-10-30T10:10:26.382Z,1014.31
2022-10-30T10:11:26.377Z,1014.34
2022-10-30T10:12:26.368Z,1014.32
2022-10-30T10:13:26.354Z,1014.26
2022-10-30T10:14:26.376Z,1014.32
2022-10-30T10:15:26.328Z,1014.36
2022-10-30T10:16:26.316Z,1014.34
2022-10-30T10:17:26.308Z,1014.28
2022-10-30T10:18:26.368Z,1014.36
2022-10-30T10:19:26.282Z,1014.31
2022-10-30T10:20:26.299Z,1014.30
2022-10-30T10:21:26.259Z,1014.23
2022-10-30T10:22:26.269Z,1014.32
2022-10-30T10:23:26.269Z,1014.32
2022-10-30T10:24:26.228Z,1014.30
2022-10-30T10:25:26.248Z,1014.29
2022-10-30T10:26:26.208Z,1014.36
2022-10-30T10:27:26.197Z,1014.40
2022-10-30T10:28:26.182Z,1014.39
2022-10-30T10:29:26.194Z,1014.38
2022-10-30T10:30:26.162Z,1014.43
2022-10-30T10:31:26.154Z,1014.42
2022-10-30T10:32:26.137Z,1014.39
2022-10-30T10:33:26.143Z,1014.37
2022-10-30T10:34:26.141Z,1014.41
2022-10-30T10:35:26.114Z,1014.40
2022-10-30T10:36:26.092Z,1014.40
2022-10-30T10:37:26.083Z,1014.47
2022-10-30T10:38:26.075Z,1014.37
2022-10-30T10:39:26.121Z,1014.45
2022-10-30T10:40:26.055Z,1014.43
2022-10-30T10:41:26.045Z,1014.40
2022-10-30T10:42:26.039Z,1014.38
2022-10-30T10:43:26.029Z,1014.42
2022-10-30T10:44:26.008Z,1014.42
2022-10-30T10:45:26.024Z,1014.34
2022-10-30T10:46:26.013Z,1014.27
2022-10-30T10:47:25.978Z,1014.19
2022-10-30T10:48:25.969Z,1014.21
2022-10-30T10:49:25.954Z,1014.21
2022-10-30T10:50:25.970Z,1014.20
2022-10-30T10:51:25.934Z,1014.27
2022-10-30T10:52:25.953Z,1014.27
2022-10-30T10:53:26.053Z,1014.26
2022-10-30T10:54:25.909Z,1014.30
2022-10-30T10:55:25.907Z,1014.23
2022-10-30T10:56:25.897Z,1014.24
2022-10-30T10:57:25.870Z,1014.21
2022-10-30T10:58:25.874Z,1014.19
2022-10-30T10:59:25.857Z,1014.18
2022-10-30T11:00:25.844Z,1014.16
2022-10-30T11:01:25.946Z,1014.16
2022-10-30T11:02:26.001Z,1014.18
2022-10-30T11:03:25.822Z,1014.20
2022-10-30T11:04:25.787Z,1014.18
2022-10-30T11:05:25.787Z,1014.18
2022-10-30T11:06:25.769Z,1014.14
2022-10-30T11:07:25.757Z,1014.17
2022-10-30T11:08:25.770Z,1014.12
2022-10-30T11:09:25.760Z,1014.07
2022-10-30T11:10:25.732Z,1014.11
2022-10-30T11:11:25.734Z,1014.10
2022-10-30T11:12:25.701Z,1014.14
2022-10-30T11:13:25.700Z,1014.11
2022-10-30T11:14:25.698Z,1014.05
2022-10-30T11:15:25.675Z,1014.09
2022-10-30T11:16:25.657Z,1014.06
2022-10-30T11:17:25.644Z,1014.00
2022-10-30T11:18:25.655Z,1014.01
2022-10-30T11:19:25.624Z,1014.00
2022-10-30T11:20:25.628Z,1014.00
2022-10-30T11:21:25.624Z,1014.01
2022-10-30T11:22:25.590Z,1013.95
2022-10-30T11:23:25.605Z,1013.99
2022-10-30T11:24:25.572Z,1013.94
2022-10-30T11:25:28.598Z,1013.92
2022-10-30T11:26:25.549Z,1013.94
2022-10-30T11:27:25.557Z,1014.02
2022-10-30T11:28:25.524Z,1013.99
2022-10-30T11:29:25.545Z,1014.00
2022-10-30T11:30:25.504Z,1014.03
2022-10-30T11:31:25.493Z,1014.12
2022-10-30T11:32:25.510Z,1014.11
2022-10-30T11:33:25.469Z,1014.11
2022-10-30T11:34:25.457Z,1014.15
2022-10-30T11:35:25.444Z,1014.17
2022-10-30T11:36:25.438Z,1014.04
2022-10-30T11:37:25.453Z,1014.08
2022-10-30T11:38:25.419Z,1014.07
2022-10-30T11:39:25.404Z,1014.07
2022-10-30T11:40:25.424Z,1014.08
2022-10-30T11:41:25.382Z,1014.10
2022-10-30T11:42:25.367Z,1014.06
2022-10-30T11:43:25.382Z,1014.03
2022-10-30T11:44:25.350Z,1014.06
2022-10-30T11:45:25.337Z,1014.11
2022-10-30T11:46:25.349Z,1014.10
2022-10-30T11:47:25.371Z,1014.05
2022-10-30T11:48:26.058Z,1014.06
2022-10-30T11:49:25.301Z,1014.04
2022-10-30T11:50:25.283Z,1014.03
2022-10-30T11:51:25.337Z,1014.08
2022-10-30T11:52:25.267Z,1014.10
2022-10-30T11:53:25.282Z,1014.13
2022-10-30T11:54:25.237Z,1014.07
2022-10-30T11:55:25.233Z,1014.15
2022-10-30T11:56:25.228Z,1014.16
2022-10-30T11:57:25.212Z,1014.10
2022-10-30T11:58:25.230Z,1014.08
2022-10-30T11:59:25.207Z,1014.12
2022-10-30T12:00:25.174Z,1014.13
2022-10-30T12:01:25.250Z,1014.15
2022-10-30T12:02:25.330Z,1014.08
2022-10-30T12:03:25.163Z,1014.07
2022-10-30T12:04:25.134Z,1014.05
2022-10-30T12:05:25.125Z,1013.99
2022-10-30T12:06:25.112Z,1014.00
2022-10-30T12:07:25.095Z,1013.98